createdAt,value
2023-03-05T00:00:56.814Z,98615.55
2023-03-05T00:03:27.278Z,98611.23
2023-03-05T00:06:00.030Z,98610.54
2023-03-05T00:08:30.827Z,98609.71
2023-03-05T00:11:02.701Z,98609.40
2023-03-05T00:13:33.795Z,98606.66
2023-03-05T00:16:07.897Z,98610.23
2023-03-05T00:18:38.980Z,98606.10
2023-03-05T00:21:20.682Z,98606.60
2023-03-05T00:23:51.991Z,98608.64
2023-03-05T00:26:23.852Z,98607.05
2023-03-05T00:28:55.387Z,98606.00
2023-03-05T00:31:30.134Z,98603.73
2023-03-05T00:34:02.440Z,98607.49
2023-03-05T00:36:33.122Z,98608.55
2023-03-05T00:39:03.520Z,98609.42
2023-03-05T00:41:35.875Z,98601.89
2023-03-05T00:44:06.750Z,98600.85
2023-03-05T00:46:37.659Z,98600.82
2023-03-05T00:49:08.715Z,98602.33
2023-03-05T00:51:39.138Z,98600.59
2023-03-05T00:54:09.847Z,98596.77
2023-03-05T00:56:40.220Z,98595.19
2023-03-05T00:59:10.765Z,98590.19
2023-03-05T01:01:41.137Z,98583.27
2023-03-05T01:04:12.005Z,98587.23
2023-03-05T01:06:45.082Z,98587.38
2023-03-05T01:09:17.449Z,98585.19
2023-03-05T01:11:47.827Z,98584.50
2023-03-05T01:14:18.209Z,98582.10
2023-03-05T01:16:49.051Z,98579.51
2023-03-05T01:19:19.561Z,98578.11
2023-03-05T01:21:50.023Z,98575.68
2023-03-05T01:24:20.488Z,98573.77
2023-03-05T01:26:50.967Z,98569.44
2023-03-05T01:29:21.322Z,98569.92
2023-03-05T01:31:51.894Z,98564.77
2023-03-05T01:34:22.340Z,98560.15
2023-03-05T01:36:52.743Z,98560.52
2023-03-05T01:39:23.202Z,98556.77
2023-03-05T01:41:53.566Z,98551.99
2023-03-05T01:44:29.872Z,98555.27
2023-03-05T01:47:00.204Z,98548.57
2023-03-05T01:49:32.389Z,98547.19
2023-03-05T01:52:06.414Z,98544.59
2023-03-05T01:54:40.316Z,98542.83
2023-03-05T01:57:13.458Z,98535.10
2023-03-05T01:59:45.917Z,98532.49
2023-03-05T02:02:16.553Z,98533.84
2023-03-05T02:04:50.620Z,98534.35
2023-03-05T02:07:21.304Z,98528.39
2023-03-05T02:09:52.107Z,98524.98
2023-03-05T02:12:22.791Z,98521.89
2023-03-05T02:14:59.196Z,98521.35
2023-03-05T02:17:30.448Z,98518.41
2023-03-05T02:20:07.470Z,98515.47
2023-03-05T02:22:38.042Z,98511.81
2023-03-05T02:25:17.326Z,98510.75
2023-03-05T02:27:55.796Z,98501.25
2023-03-05T02:30:28.322Z,98500.76
2023-03-05T02:32:58.947Z,98495.46
2023-03-05T02:35:29.957Z,98500.80
2023-03-05T02:38:00.712Z,98497.55
2023-03-05T02:40:31.447Z,98497.52
2023-03-05T02:43:01.831Z,98494.24
2023-03-05T02:45:33.023Z,98494.39
2023-03-05T02:48:03.536Z,98494.86
2023-03-05T02:50:34.325Z,98491.10
2023-03-05T02:53:04.891Z,98489.01
2023-03-05T02:55:35.420Z,98491.59
2023-03-05T02:58:06.062Z,98488.89
2023-03-05T03:00:36.976Z,98490.13
2023-03-05T03:03:07.810Z,98481.91
2023-03-05T03:05:38.722Z,98476.41
2023-03-05T03:08:10.324Z,98476.91
2023-03-05T03:10:40.756Z,98475.16
2023-03-05T03:13:11.052Z,98472.73
2023-03-05T03:15:41.537Z,98472.38
2023-03-05T03:18:11.835Z,98468.94
2023-03-05T03:20:42.216Z,98466.40
2023-03-05T03:23:12.593Z,98469.18
2023-03-05T03:25:43.076Z,98469.39
2023-03-05T03:28:13.387Z,98463.08
2023-03-05T03:30:43.858Z,98456.56
2023-03-05T03:33:14.407Z,98463.94
2023-03-05T03:35:44.812Z,98464.80
2023-03-05T03:38:15.289Z,98461.52
2023-03-05T03:40:45.675Z,98458.77
2023-03-05T03:43:16.096Z,98457.05
2023-03-05T03:45:47.683Z,98455.65
2023-03-05T03:48:18.089Z,98453.60
2023-03-05T03:50:48.616Z,98451.40
2023-03-05T03:53:19.451Z,98449.20
2023-03-05T03:55:50.021Z,98449.39
2023-03-05T03:58:20.370Z,98447.33
2023-03-05T04:00:50.840Z,98449.04
2023-03-05T04:03:21.786Z,98450.73
2023-03-05T04:05:52.345Z,98449.86
2023-03-05T04:08:22.913Z,98453.41
2023-03-05T04:10:53.276Z,98452.52
2023-03-05T04:13:23.651Z,98447.16
2023-03-05T04:15:54.419Z,98446.75
2023-03-05T04:18:24.987Z,98442.24
2023-03-05T04:20:55.689Z,98441.49
2023-03-05T04:23:26.054Z,98438.36
2023-03-05T04:25:56.441Z,98434.73
2023-03-05T04:28:27.048Z,98435.44
2023-03-05T04:30:57.426Z,98435.12
2023-03-05T04:33:27.891Z,98434.91
2023-03-05T04:35:58.336Z,98437.11
2023-03-05T04:38:28.702Z,98431.98
2023-03-05T04:40:59.724Z,98433.64
2023-03-05T04:43:30.103Z,98436.70
2023-03-05T04:46:00.480Z,98430.50
2023-03-05T04:48:30.904Z,98430.46
2023-03-05T04:51:01.285Z,98423.23
2023-03-05T04:53:32.078Z,98422.01
2023-03-05T04:56:02.878Z,98420.60
2023-03-05T04:58:33.284Z,98414.23
2023-03-05T05:01:07.616Z,98420.17
2023-03-05T05:03:38.069Z,98416.05
2023-03-05T05:06:08.759Z,98410.77
2023-03-05T05:08:39.637Z,98414.10
2023-03-05T05:11:11.923Z,98403.80
2023-03-05T05:13:42.246Z,98410.17
2023-03-05T05:16:12.674Z,98400.56
2023-03-05T05:18:43.022Z,98396.43
2023-03-05T05:21:15.028Z,98390.75
2023-03-05T05:23:45.347Z,98389.02
2023-03-05T05:26:15.938Z,98391.56
2023-03-05T05:28:46.946Z,98388.77
2023-03-05T05:31:18.390Z,98392.31
2023-03-05T05:33:49.967Z,98392.11
2023-03-05T05:36:22.290Z,98391.55
2023-03-05T05:38:52.705Z,98391.16
2023-03-05T05:41:23.829Z,98384.11
2023-03-05T05:43:55.103Z,98379.47
2023-03-05T05:46:27.852Z,98379.08
2023-03-05T05:48:59.870Z,98384.55
2023-03-05T05:51:31.866Z,98385.45
2023-03-05T05:54:06.051Z,98381.41
2023-03-05T05:56:37.202Z,98381.42
2023-03-05T05:59:09.027Z,98386.03
2023-03-05T06:01:41.371Z,98389.14
2023-03-05T06:04:13.173Z,98385.55
2023-03-05T06:06:45.889Z,98385.70
2023-03-05T06:09:19.898Z,98382.94
2023-03-05T06:11:52.065Z,98376.90
2023-03-05T06:14:24.978Z,98383.58
2023-03-05T06:16:55.498Z,98384.77
2023-03-05T06:19:27.919Z,98386.27
2023-03-05T06:21:58.982Z,98386.42
2023-03-05T06:24:31.967Z,98386.56
2023-03-05T06:27:03.118Z,98385.88
2023-03-05T06:29:34.864Z,98383.48
2023-03-05T06:32:09.082Z,98383.64
2023-03-05T06:34:42.004Z,98382.13
2023-03-05T06:37:13.252Z,98381.01
2023-03-05T06:39:45.031Z,98385.53
2023-03-05T06:47:47.610Z,98378.16
2023-03-05T06:50:18.229Z,98373.02
2023-03-05T06:52:51.711Z,98377.11
2023-03-05T06:55:22.527Z,98379.18
2023-03-05T06:57:53.010Z,98383.08
2023-03-05T07:00:29.540Z,98382.73
2023-03-05T07:02:59.924Z,98387.69
2023-03-05T07:05:31.723Z,98384.42
2023-03-05T07:08:04.106Z,98388.39
2023-03-05T07:10:34.621Z,98386.72
2023-03-05T07:13:05.211Z,98385.98
2023-03-05T07:15:36.118Z,98386.23
2023-03-05T07:18:07.065Z,98382.02
2023-03-05T07:20:38.308Z,98384.95
2023-03-05T07:23:08.837Z,98386.87
2023-03-05T07:25:40.100Z,98386.56
2023-03-05T07:28:11.673Z,98388.14
2023-03-05T07:30:42.081Z,98388.00
2023-03-05T07:33:12.474Z,98389.05
2023-03-05T07:35:43.857Z,98382.63
2023-03-05T07:38:14.241Z,98381.84
2023-03-05T07:40:44.658Z,98381.23
2023-03-05T07:43:15.036Z,98375.65
2023-03-05T07:45:46.447Z,98374.48
2023-03-05T07:48:20.768Z,98376.20
2023-03-05T07:50:51.633Z,98373.11
2023-03-05T07:53:22.182Z,98373.31
2023-03-05T07:55:53.064Z,98371.96
2023-03-05T07:58:23.503Z,98372.15
2023-03-05T08:00:53.899Z,98374.39
2023-03-05T08:03:24.320Z,98376.98
2023-03-05T08:05:55.074Z,98374.79
2023-03-05T08:08:28.699Z,98370.58
2023-03-05T08:10:59.486Z,98371.52
2023-03-05T08:13:29.819Z,98371.07
2023-03-05T08:16:00.440Z,98376.08
2023-03-05T08:18:31.090Z,98371.13
2023-03-05T08:21:01.601Z,98371.48
2023-03-05T08:23:34.389Z,98369.42
2023-03-05T08:26:05.069Z,98367.19
2023-03-05T08:28:35.638Z,98368.06
2023-03-05T08:31:11.207Z,98366.72
2023-03-05T08:33:42.055Z,98369.64
2023-03-05T08:36:13.241Z,98365.90
2023-03-05T08:38:44.636Z,98358.73
2023-03-05T08:41:15.656Z,98359.27
2023-03-05T08:43:46.030Z,98358.27
2023-03-05T08:46:17.578Z,98354.89
2023-03-05T08:48:48.188Z,98351.17
2023-03-05T08:51:20.194Z,98347.11
2023-03-05T08:53:50.589Z,98345.96
2023-03-05T08:56:21.251Z,98340.49
2023-03-05T08:58:53.008Z,98340.66
2023-03-05T09:01:23.886Z,98341.67
2023-03-05T09:03:54.276Z,98339.27
2023-03-05T09:06:24.790Z,98339.61
2023-03-05T09:08:55.637Z,98341.35
2023-03-05T09:11:26.106Z,98345.11
2023-03-05T09:13:56.400Z,98338.80
2023-03-05T09:16:26.885Z,98335.91
2023-03-05T09:18:57.474Z,98333.00
2023-03-05T09:21:28.300Z,98327.69
2023-03-05T09:24:00.470Z,98320.02
2023-03-05T09:26:31.117Z,98319.73
2023-03-05T09:29:01.466Z,98320.46
2023-03-05T09:31:31.890Z,98319.30
2023-03-05T09:34:02.381Z,98321.40
2023-03-05T09:36:33.551Z,98314.59
2023-03-05T09:39:06.865Z,98314.14
2023-03-05T09:41:58.616Z,98310.44
2023-03-05T09:44:34.726Z,98312.21
2023-03-05T09:47:14.822Z,98303.85
2023-03-05T09:49:55.437Z,98306.98
2023-03-05T09:52:32.453Z,98301.84
2023-03-05T09:55:03.529Z,98291.71
2023-03-05T09:57:37.569Z,98293.06
2023-03-05T10:00:12.672Z,98287.39
2023-03-05T10:02:49.616Z,98284.66
2023-03-05T10:05:23.860Z,98289.83
2023-03-05T10:07:57.834Z,98286.91
2023-03-05T10:10:31.710Z,98280.73
2023-03-05T10:13:05.787Z,98281.58
2023-03-05T10:15:40.913Z,98283.27
2023-03-05T10:18:22.717Z,98285.15
2023-03-05T10:21:00.576Z,98285.48
2023-03-05T10:23:55.837Z,98281.69
2023-03-05T10:26:36.286Z,98278.92
2023-03-05T10:29:22.276Z,98278.55
2023-03-05T10:32:04.098Z,98264.77
2023-03-05T10:34:54.282Z,98269.52
2023-03-05T10:37:40.199Z,98270.34
2023-03-05T10:40:15.983Z,98272.84
2023-03-05T10:42:51.955Z,98269.35
2023-03-05T10:45:25.669Z,98268.11
2023-03-05T10:47:58.654Z,98265.17
2023-03-05T10:50:29.069Z,98269.10
2023-03-05T10:53:13.984Z,98261.18
2023-03-05T10:55:44.636Z,98263.36
2023-03-05T10:58:16.393Z,98262.98
2023-03-05T11:03:58.452Z,98266.31
2023-03-05T11:06:37.158Z,98264.55
2023-03-05T11:09:22.690Z,98255.46
2023-03-05T11:12:14.492Z,98252.74
2023-03-05T11:14:46.887Z,98247.49
2023-03-05T11:17:29.055Z,98243.11
2023-03-05T11:20:17.513Z,98236.50
2023-03-05T11:23:05.157Z,98234.86
2023-03-05T11:25:36.852Z,98227.21
2023-03-05T11:28:07.376Z,98224.03
2023-03-05T11:30:39.011Z,98219.43
2023-03-05T11:33:15.728Z,98218.45
2023-03-05T11:35:47.324Z,98215.94
2023-03-05T11:38:21.676Z,98211.85
2023-03-05T11:40:52.660Z,98206.39
2023-03-05T11:43:25.005Z,98201.08
2023-03-05T11:46:07.308Z,98194.39
2023-03-05T11:48:39.802Z,98192.46
2023-03-05T11:51:17.106Z,98178.52
2023-03-05T11:53:49.200Z,98177.46
2023-03-05T11:56:23.220Z,98174.30
2023-03-05T11:58:55.853Z,98172.15
2023-03-05T12:01:28.454Z,98169.34
2023-03-05T12:04:00.148Z,98170.95
2023-03-05T12:06:35.944Z,98165.03
2023-03-05T12:09:14.095Z,98160.66
2023-03-05T12:11:44.736Z,98155.63
2023-03-05T12:14:21.181Z,98153.23
2023-03-05T12:16:54.624Z,98148.27
2023-03-05T12:19:37.446Z,98144.55
2023-03-05T12:22:18.370Z,98141.15
2023-03-05T12:24:49.064Z,98133.41
2023-03-05T12:27:34.301Z,98132.42
2023-03-05T12:30:05.675Z,98131.05
2023-03-05T12:33:02.374Z,98133.97
2023-03-05T12:35:38.630Z,98130.21
2023-03-05T12:38:32.357Z,98123.20
2023-03-05T12:41:45.125Z,98120.17
2023-03-05T12:44:23.824Z,98118.52
2023-03-05T12:47:23.892Z,98116.70
2023-03-05T12:49:54.481Z,98108.70
2023-03-05T12:52:30.806Z,98102.41
2023-03-05T12:55:20.217Z,98103.48
2023-03-05T12:57:53.956Z,98102.65
2023-03-05T13:00:28.510Z,98099.08
2023-03-05T13:03:01.983Z,98092.41
2023-03-05T13:05:34.841Z,98091.74
2023-03-05T13:08:23.071Z,98083.87
2023-03-05T13:10:58.494Z,98078.72
2023-03-05T13:13:30.503Z,98073.77
2023-03-05T13:16:01.007Z,98068.44
2023-03-05T13:18:33.155Z,98068.44
2023-03-05T13:21:07.065Z,98067.23
2023-03-05T13:23:38.310Z,98066.19
2023-03-05T13:26:18.631Z,98068.23
2023-03-05T13:29:06.247Z,98067.52
2023-03-05T13:31:41.548Z,98062.70
2023-03-05T13:34:17.181Z,98060.83
2023-03-05T13:36:54.557Z,98056.18
2023-03-05T13:39:28.322Z,98053.79
2023-03-05T13:42:05.325Z,98050.53
2023-03-05T13:44:37.480Z,98042.30
2023-03-05T13:47:16.835Z,98034.92
2023-03-05T13:49:48.344Z,98024.08
2023-03-05T13:52:29.699Z,98030.23
2023-03-05T13:55:00.615Z,98028.84
2023-03-05T13:57:38.518Z,98027.80
2023-03-05T14:00:24.997Z,98027.46
2023-03-05T14:02:58.597Z,98021.46
2023-03-05T14:05:31.593Z,98015.80
2023-03-05T14:08:02.270Z,98016.51
2023-03-05T14:10:36.241Z,98012.92
2023-03-05T14:13:13.310Z,98009.00
2023-03-05T14:16:04.229Z,98006.79
2023-03-05T14:18:35.146Z,98001.31
2023-03-05T14:28:29.287Z,97986.46
2023-03-05T14:31:00.048Z,97987.33
2023-03-05T14:33:33.159Z,97985.27
2023-03-05T14:36:04.873Z,97981.16
2023-03-05T14:38:35.937Z,97976.70
2023-03-05T14:41:29.214Z,97976.02
2023-03-05T14:43:59.687Z,97971.73
2023-03-05T14:46:30.495Z,97969.34
2023-03-05T14:49:01.027Z,97968.15
2023-03-05T14:51:31.625Z,97962.33
2023-03-05T14:54:02.113Z,97959.76
2023-03-05T14:56:32.628Z,97956.85
2023-03-05T14:59:03.188Z,97955.83
2023-03-05T15:01:33.897Z,97949.99
2023-03-05T15:04:04.621Z,97946.77
2023-03-05T15:06:38.075Z,97946.41
2023-03-05T15:09:12.036Z,97938.88
2023-03-05T15:11:42.627Z,97937.17
2023-03-05T15:14:13.683Z,97932.38
2023-03-05T15:16:46.746Z,97929.31
2023-03-05T15:19:17.368Z,97922.98
2023-03-05T15:21:48.619Z,97920.06
2023-03-05T15:24:19.525Z,97918.37
2023-03-05T15:26:50.297Z,97916.65
2023-03-05T15:29:21.084Z,97913.23
2023-03-05T15:31:55.256Z,97914.42
2023-03-05T15:34:25.669Z,97908.61
2023-03-05T15:36:56.663Z,97908.27
2023-03-05T15:39:28.741Z,97900.39
2023-03-05T15:41:59.547Z,97900.22
2023-03-05T15:44:30.226Z,97894.56
2023-03-05T15:47:00.862Z,97897.14
2023-03-05T15:49:31.318Z,97892.69
2023-03-05T15:52:02.161Z,97895.09
2023-03-05T15:54:32.964Z,97891.48
2023-03-05T15:57:03.635Z,97889.78
2023-03-05T15:59:34.208Z,97885.84
2023-03-05T16:02:05.233Z,97882.58
2023-03-05T16:04:35.786Z,97878.80
2023-03-05T16:07:06.559Z,97876.58
2023-03-05T16:09:40.362Z,97877.77
2023-03-05T16:12:13.542Z,97872.81
2023-03-05T16:14:45.128Z,97869.58
2023-03-05T16:17:16.402Z,97868.55
2023-03-05T16:19:49.375Z,97869.05
2023-03-05T16:22:18.671Z,97866.30
2023-03-05T16:24:49.795Z,97861.86
2023-03-05T16:27:20.228Z,97858.80
2023-03-05T16:29:51.155Z,97857.92
2023-03-05T16:32:21.810Z,97856.90
2023-03-05T16:34:52.370Z,97857.42
2023-03-05T16:37:24.952Z,97853.30
2023-03-05T16:39:55.263Z,97851.07
2023-03-05T16:42:25.664Z,97847.14
2023-03-05T16:44:56.729Z,97842.86
2023-03-05T16:47:27.248Z,97845.26
2023-03-05T16:49:57.813Z,97845.25
2023-03-05T16:52:29.189Z,97847.64
2023-03-05T16:54:59.600Z,97846.26
2023-03-05T16:57:29.954Z,97847.30
2023-03-05T17:00:02.497Z,97845.08
2023-03-05T17:02:33.364Z,97845.25
2023-03-05T17:05:03.733Z,97842.17
2023-03-05T17:07:34.277Z,97839.43
2023-03-05T17:10:05.030Z,97838.06
2023-03-05T17:12:35.344Z,97838.41
2023-03-05T17:15:07.116Z,97841.65
2023-03-05T17:17:38.931Z,97840.97
2023-03-05T17:20:13.125Z,97839.60
2023-03-05T17:22:43.641Z,97836.52
2023-03-05T17:25:14.044Z,97839.42
2023-03-05T17:27:44.419Z,97838.05
2023-03-05T17:30:16.643Z,97835.98
2023-03-05T17:32:47.103Z,97838.73
2023-03-05T17:35:21.331Z,97836.15
2023-03-05T17:37:55.269Z,97836.31
2023-03-05T17:40:26.596Z,97832.20
2023-03-05T17:42:57.073Z,97832.20
2023-03-05T17:45:27.703Z,97832.04
2023-03-05T17:47:58.855Z,97834.08
2023-03-05T17:50:29.465Z,97832.89
2023-03-05T17:52:59.877Z,97830.83
2023-03-05T17:55:30.528Z,97831.00
2023-03-05T17:58:01.614Z,97829.64
2023-03-05T18:00:33.012Z,97831.02
2023-03-05T18:03:03.609Z,97829.48
2023-03-05T18:05:34.516Z,97823.83
2023-03-05T18:08:05.221Z,97819.71
2023-03-05T18:10:36.424Z,97818.35
2023-03-05T18:13:06.823Z,97820.91
2023-03-05T18:15:41.768Z,97820.23
2023-03-05T18:18:12.226Z,97823.13
2023-03-05T18:20:42.997Z,97817.30
2023-03-05T18:23:14.003Z,97811.98
2023-03-05T18:25:44.501Z,97810.95
2023-03-05T18:28:16.162Z,97810.10
2023-03-05T18:30:47.246Z,97809.05
2023-03-05T18:33:20.340Z,97808.52
2023-03-05T18:35:52.371Z,97805.80
2023-03-05T18:38:23.895Z,97803.06
2023-03-05T18:40:55.719Z,97802.39
2023-03-05T18:43:26.805Z,97795.72
2023-03-05T18:45:58.415Z,97792.81
2023-03-05T18:48:29.065Z,97782.55
2023-03-05T18:51:01.245Z,97786.48
2023-03-05T18:53:32.382Z,97782.23
2023-03-05T18:56:03.027Z,97779.14
2023-03-05T18:58:33.737Z,97774.67
2023-03-05T19:01:04.683Z,97770.58
2023-03-05T19:03:35.759Z,97770.40
2023-03-05T19:06:08.918Z,97770.56
2023-03-05T19:08:39.464Z,97770.75
2023-03-05T19:11:16.832Z,97772.45
2023-03-05T19:13:50.279Z,97768.67
2023-03-05T19:16:21.961Z,97767.83
2023-03-05T19:19:03.934Z,97765.09
2023-03-05T19:21:34.971Z,97763.21
2023-03-05T19:24:06.387Z,97765.79
2023-03-05T19:26:37.127Z,97761.51
2023-03-05T19:29:08.350Z,97761.69
2023-03-05T19:31:39.151Z,97758.45
2023-03-05T19:34:09.727Z,97758.61
2023-03-05T19:36:40.387Z,97752.14
2023-03-05T19:39:11.269Z,97750.58
2023-03-05T19:41:41.863Z,97745.27
2023-03-05T19:44:13.287Z,97747.49
2023-03-05T19:46:43.909Z,97737.58
2023-03-05T19:49:14.428Z,97739.98
2023-03-05T19:51:46.341Z,97738.26
2023-03-05T19:54:18.183Z,97740.81
2023-03-05T19:56:52.904Z,97741.52
2023-03-05T19:59:24.995Z,97739.64
2023-03-05T20:01:57.270Z,97734.84
2023-03-05T20:04:28.356Z,97733.14
2023-03-05T20:06:59.004Z,97729.71
2023-03-05T20:09:29.864Z,97729.89
2023-03-05T20:12:02.732Z,97729.39
2023-03-05T20:14:33.190Z,97725.80
2023-03-05T20:17:04.006Z,97722.04
2023-03-05T20:19:34.839Z,97719.98
2023-03-05T20:22:05.274Z,97712.48
2023-03-05T20:24:35.842Z,97713.66
2023-03-05T20:27:07.170Z,97721.88
2023-03-05T20:29:37.901Z,97725.80
2023-03-05T20:32:08.977Z,97719.80
2023-03-05T20:34:39.386Z,97718.78
2023-03-05T20:37:09.998Z,97715.69
2023-03-05T20:39:40.540Z,97717.91
2023-03-05T20:42:11.206Z,97717.91
2023-03-05T20:44:42.532Z,97717.92
2023-03-05T20:47:26.098Z,97716.21
2023-03-05T20:49:58.161Z,97710.05
2023-03-05T20:52:28.889Z,97705.27
2023-03-05T20:54:59.666Z,97701.16
2023-03-05T20:57:30.337Z,97697.23
2023-03-05T21:00:00.739Z,97693.81
2023-03-05T21:02:31.810Z,97688.17
2023-03-05T21:05:02.398Z,97683.91
2023-03-05T21:07:33.328Z,97682.88
2023-03-05T21:10:04.065Z,97682.20
2023-03-05T21:12:35.350Z,97678.60
2023-03-05T21:15:06.962Z,97678.10
2023-03-05T21:17:37.536Z,97676.04
2023-03-05T21:20:10.469Z,97676.55
2023-03-05T21:22:41.204Z,97673.14
2023-03-05T21:25:20.727Z,97671.26
2023-03-05T21:27:58.308Z,97667.48
2023-03-05T21:30:33.584Z,97666.63
2023-03-05T21:33:05.338Z,97660.48
2023-03-05T21:35:36.829Z,97661.16
2023-03-05T21:38:08.370Z,97657.75
2023-03-05T21:40:43.539Z,97655.53
2023-03-05T21:43:15.214Z,97651.94
2023-03-05T21:45:47.134Z,97643.23
2023-03-05T21:48:18.183Z,97638.61
2023-03-05T21:50:49.901Z,97637.58
2023-03-05T21:53:21.550Z,97636.56
2023-03-05T21:56:04.014Z,97633.30
2023-03-05T21:58:35.403Z,97629.04
2023-03-05T22:01:06.237Z,97627.67
2023-03-05T22:03:36.805Z,97611.77
2023-03-05T22:06:11.859Z,97614.33
2023-03-05T22:08:42.457Z,97612.11
2023-03-05T22:11:14.895Z,97599.64
2023-03-05T22:13:45.417Z,97593.82
2023-03-05T22:16:23.600Z,97593.48
2023-03-05T22:18:54.258Z,97593.32
2023-03-05T22:21:27.282Z,97588.88
2023-03-05T22:23:57.005Z,97579.47
2023-03-05T22:26:32.342Z,97577.42
2023-03-05T22:29:02.756Z,97569.22
2023-03-05T22:31:33.814Z,97567.17
2023-03-05T22:34:04.220Z,97565.30
2023-03-05T22:36:35.158Z,97565.12
2023-03-05T22:39:05.819Z,97559.48
2023-03-05T22:41:37.368Z,97560.85
2023-03-05T22:44:10.288Z,97561.17
2023-03-05T22:46:41.601Z,97550.42
2023-03-05T22:49:13.321Z,97549.73
2023-03-05T22:51:46.311Z,97548.02
2023-03-05T22:54:18.368Z,97548.89
2023-03-05T22:56:51.322Z,97540.18
2023-03-05T22:59:23.335Z,97535.90
2023-03-05T23:01:54.787Z,97540.67
2023-03-05T23:04:40.464Z,97540.17
2023-03-05T23:07:12.677Z,97538.98
2023-03-05T23:09:45.405Z,97538.64
2023-03-05T23:12:18.396Z,97532.48
2023-03-05T23:14:49.394Z,97529.58
2023-03-05T23:17:22.659Z,97525.31
2023-03-05T23:19:56.409Z,97523.44
2023-03-05T23:22:28.382Z,97515.23
2023-03-05T23:24:59.691Z,97515.91
2023-03-05T23:27:31.389Z,97519.32
2023-03-05T23:30:16.197Z,97513.01
2023-03-05T23:32:53.427Z,97515.23
2023-03-05T23:35:27.880Z,97518.13
2023-03-05T23:38:00.577Z,97511.13
2023-03-05T23:48:51.367Z,97505.34
2023-03-05T23:51:21.732Z,97506.19
2023-03-05T23:53:52.198Z,97503.64
2023-03-05T23:56:22.544Z,97498.67
2023-03-05T23:58:56.070Z,97490.64
